This is the latest recevied weather packets stored in our database for station/object LRBC. If no packets are shown the sender has not sent any weather packets the latest 10 day(s).
| Time | Temp. | Humidity | Pressure | Rain* | Wind** | Luminosity | Snow |
|---|---|---|---|---|---|---|---|
| 1788492828 | 13.89° C | 100% | 1017 hPa | - | - | - | - |
| 1788491928 | 15° C | 88% | 1017 hPa | - | - | - | - |
| 1788491027 | 15° C | 88% | 1017 hPa | - | - | - | - |
| 1788489228 | 16.11° C | 83% | 1017 hPa | - | - | - | - |
| 1788485628 | 13.89° C | 94% | 1017 hPa | - | - | - | - |
| 1788474827 | 13.89° C | 94% | 1017 hPa | - | - | - | - |
| 1788473928 | 13.89° C | 94% | 1017 hPa | - | - | - | - |
| 1788471236 | 16.11° C | 88% | 1017 hPa | - | - | - | - |
| 1788470331 | 16.11° C | 88% | 1018 hPa | - | - | - | - |
| 1788469429 | 16.11° C | 88% | 1018 hPa | - | - | - | - |
| 1788467628 | 17.22° C | 83% | 1018 hPa | - | - | - | - |
| 1788466728 | 16.11° C | 94% | 1018 hPa | - | - | - | - |
| 1788465828 | 16.11° C | 94% | 1018 hPa | - | - | - | - |
| 1788464928 | 17.22° C | 83% | 1018 hPa | - | - | - | - |
| 1788464029 | 17.22° C | 83% | 1018 hPa | - | - | - | - |
| 1788450529 | 25° C | 42% | 1016 hPa | - | - | - | - |
| 1788448729 | 25° C | 44% | 1016 hPa | - | - | - | - |
| 1788447829 | 25° C | 44% | 1016 hPa | - | - | - | - |
| 1788446028 | 27.22° C | 34% | 1016 hPa | - | - | - | - |
| 1788445128 | 27.22° C | 37% | 1016 hPa | - | - | - | - |
| 1788444228 | 27.22° C | 37% | 1016 hPa | - | - | - | - |
| 1788442427 | 27.22° C | 39% | 1017 hPa | - | - | - | - |
| 1788441528 | 27.22° C | 37% | 1017 hPa | - | - | - | - |
| 1788440629 | 27.22° C | 37% | 1017 hPa | - | - | - | - |
| 1788439728 | 27.22° C | 39% | 1017 hPa | - | - | - | - |
* Rain since midnight (hover to see other rain measurements)
** Current wind speed in m/s (hover to see current wind gust speed)